createdAt,value
2019-05-22T10:14:15.791Z,12.10
2019-05-22T10:19:25.374Z,12.13
2019-05-22T10:24:30.982Z,11.98
2019-05-22T10:29:36.827Z,12.04
2019-05-22T10:34:43.251Z,12.09
2019-05-22T10:39:49.074Z,12.20
2019-05-22T10:44:55.795Z,12.32
2019-05-22T10:50:01.260Z,12.38
2019-05-22T10:55:08.252Z,12.08
2019-05-22T11:00:16.346Z,12.13
2019-05-22T11:05:23.294Z,12.18
2019-05-22T11:10:29.300Z,12.17
2019-05-22T11:15:36.552Z,12.19
2019-05-22T11:20:43.345Z,12.32
2019-05-22T11:25:53.235Z,12.02
2019-05-22T11:31:04.505Z,11.97
2019-05-22T11:36:12.031Z,12.00
2019-05-22T11:41:20.562Z,12.17
2019-05-22T11:46:26.116Z,12.13
2019-05-22T11:51:31.636Z,12.29
2019-05-22T11:56:46.563Z,12.06
2019-05-22T12:01:52.396Z,11.96
2019-05-22T12:06:57.948Z,12.15
2019-05-22T12:12:08.110Z,12.30
2019-05-22T12:17:16.523Z,12.26
2019-05-22T12:22:22.282Z,12.20
2019-05-22T12:27:27.604Z,12.21
2019-05-22T12:32:33.195Z,12.15
2019-05-22T12:37:38.984Z,12.09
2019-05-22T12:42:45.290Z,11.97
2019-05-22T12:47:55.899Z,12.69
2019-05-22T12:53:06.367Z,12.28
2019-05-22T12:58:11.761Z,12.16
2019-05-22T13:03:20.168Z,12.18
2019-05-22T13:08:27.473Z,12.02
2019-05-22T13:13:33.666Z,12.13
2019-05-22T13:18:44.253Z,12.09
2019-05-22T13:23:52.558Z,12.12
2019-05-22T13:28:58.585Z,12.10
2019-05-22T13:34:04.879Z,12.14
2019-05-22T13:39:11.915Z,12.15
2019-05-22T13:44:21.117Z,11.98
2019-05-22T13:49:32.823Z,11.91
2019-05-22T13:54:40.462Z,12.07
2019-05-22T13:59:46.423Z,12.21
2019-05-22T14:04:52.974Z,11.95
2019-05-22T14:09:59.760Z,12.03
2019-05-22T14:15:05.995Z,11.97
2019-05-22T14:20:12.218Z,12.05
2019-05-22T14:25:20.587Z,12.00
2019-05-22T14:30:28.113Z,11.79
2019-05-22T14:35:47.583Z,11.79
2019-05-22T14:40:44.360Z,11.94
2019-05-22T14:45:50.150Z,11.87
2019-05-22T14:50:56.694Z,11.76
2019-05-22T14:56:03.750Z,11.86
2019-05-22T15:01:09.879Z,11.85
2019-05-22T15:06:16.359Z,11.78
2019-05-22T15:11:22.420Z,12.01
2019-05-22T15:16:30.061Z,11.99
2019-05-22T15:21:36.259Z,11.90
2019-05-22T15:26:42.159Z,11.78
2019-05-22T15:31:48.439Z,11.93
2019-05-22T15:36:54.314Z,11.72
2019-05-22T15:42:09.272Z,11.81
2019-05-22T15:47:15.158Z,11.86
2019-05-22T15:52:23.976Z,11.85
2019-05-22T15:57:36.639Z,11.91
2019-05-22T16:02:44.512Z,11.72
2019-05-22T16:07:52.622Z,11.82
2019-05-22T16:13:00.186Z,11.75
2019-05-22T16:18:12.040Z,11.77
2019-05-22T16:23:16.332Z,11.74
2019-05-22T16:28:30.950Z,11.82
2019-05-22T16:33:35.877Z,11.78
2019-05-22T16:38:42.685Z,11.60
2019-05-22T16:43:50.656Z,11.61
2019-05-22T16:48:57.784Z,11.78
2019-05-22T16:54:09.687Z,11.70
2019-05-22T16:59:16.757Z,11.68
2019-05-22T17:04:22.633Z,11.67
2019-05-22T17:09:28.489Z,11.57
2019-05-22T17:14:40.415Z,11.60
2019-05-22T17:19:49.067Z,11.81
2019-05-22T17:24:54.918Z,11.54
2019-05-22T17:30:02.382Z,11.38
2019-05-22T17:35:10.998Z,11.46
2019-05-22T17:40:20.823Z,11.40
2019-05-22T17:45:31.300Z,11.40
2019-05-22T17:50:37.394Z,11.33
2019-05-22T17:55:42.814Z,11.44
2019-05-22T18:00:51.444Z,11.42
2019-05-22T18:05:57.273Z,11.33
2019-05-22T18:11:09.148Z,11.45
2019-05-22T18:16:16.895Z,11.36
2019-05-22T18:21:24.130Z,11.31
2019-05-22T18:26:30.734Z,11.49
2019-05-22T18:31:36.590Z,11.48
2019-05-22T18:36:43.104Z,11.42
2019-05-22T18:41:48.520Z,11.34
2019-05-22T18:46:53.832Z,11.46
2019-05-22T18:52:00.922Z,11.46
2019-05-22T18:57:06.797Z,11.34
2019-05-22T19:02:13.568Z,11.37
2019-05-22T19:07:18.872Z,11.33
2019-05-22T19:12:24.806Z,11.37
2019-05-22T19:17:30.885Z,11.26
2019-05-22T19:22:36.183Z,11.33
2019-05-22T19:27:42.075Z,11.38
2019-05-22T19:32:47.534Z,11.26
2019-05-22T19:37:53.833Z,11.26
2019-05-22T19:42:59.146Z,11.18
2019-05-22T19:48:05.812Z,11.40
2019-05-22T19:53:18.930Z,11.27
2019-05-22T19:58:22.004Z,11.25
2019-05-22T20:03:28.615Z,11.28
2019-05-22T20:08:36.341Z,11.32
2019-05-22T20:13:41.216Z,11.36
2019-05-22T20:18:47.327Z,11.44
2019-05-22T20:23:54.080Z,11.28
2019-05-22T20:29:00.289Z,11.35
2019-05-22T20:34:06.289Z,11.32
2019-05-22T20:39:13.971Z,11.35
2019-05-22T20:44:20.315Z,11.35
2019-05-22T20:49:26.563Z,11.31
2019-05-22T20:54:32.752Z,11.37
2019-05-22T20:59:38.975Z,11.38
2019-05-22T21:04:45.789Z,11.29
2019-05-22T21:09:52.318Z,11.34
2019-05-22T21:14:59.388Z,11.34
2019-05-22T21:20:06.123Z,11.32
2019-05-22T21:25:12.431Z,11.25
2019-05-22T21:30:19.428Z,11.21
2019-05-22T21:35:24.950Z,11.26
2019-05-22T21:40:30.669Z,11.24
2019-05-22T21:45:36.759Z,11.16
2019-05-22T21:50:42.291Z,11.28
2019-05-22T21:56:03.375Z,11.25
2019-05-22T22:01:26.432Z,11.25
2019-05-22T22:06:33.356Z,11.19
2019-05-22T22:11:39.748Z,11.07
2019-05-22T22:16:46.968Z,11.12
2019-05-22T22:21:52.603Z,11.15
2019-05-22T22:26:59.007Z,11.09
2019-05-22T22:32:06.234Z,11.07
2019-05-22T22:37:11.947Z,10.97
2019-05-22T22:42:19.277Z,11.03
2019-05-22T22:47:37.712Z,11.19
2019-05-22T22:52:45.095Z,11.04
2019-05-22T22:57:52.212Z,11.18
2019-05-22T23:02:59.930Z,11.25
2019-05-22T23:08:06.301Z,11.19
2019-05-22T23:13:12.117Z,11.19
2019-05-22T23:18:49.839Z,11.21
2019-05-22T23:23:53.694Z,11.19
2019-05-22T23:28:59.071Z,11.17
2019-05-22T23:34:05.648Z,10.99
2019-05-22T23:39:12.924Z,11.18
2019-05-22T23:44:23.518Z,11.07
2019-05-22T23:49:30.252Z,11.11
2019-05-22T23:54:36.324Z,10.92
2019-05-22T23:59:44.802Z,11.17
